Time;durP1;ratioP1;P1;durP2;ratioP2;P2;SDS_P1;SDS_P2;PMS_P1;PMS_P2;Temp;Humidity;BMP_temperature;BMP_pressure;BME280_temperature;BME280_humidity;BME280_pressure;Samples;Min_cycle;Max_cycle;Signal;HPM_P1;HPM_P2
2022/08/03 00:01:16;;;;;;;4.13;3.93;;;23.90;48.10;;;;;;20722;6837;117610;-88
2022/08/03 00:03:41;;;;;;;4.65;4.35;;;23.60;48.40;;;;;;20529;6837;307177;-88
2022/08/03 00:06:08;;;;;;;4.30;4.10;;;24.00;48.10;;;;;;20528;6837;337448;-89
2022/08/03 00:08:33;;;;;;;4.50;4.20;;;24.00;48.10;;;;;;20529;6837;312984;-89
2022/08/03 00:10:59;;;;;;;3.80;3.60;;;24.20;47.70;;;;;;20747;6837;117509;-87
2022/08/03 00:13:24;;;;;;;3.90;3.70;;;24.00;47.80;;;;;;20704;6837;117752;-88
2022/08/03 00:15:50;;;;;;;4.13;3.93;;;23.60;48.20;;;;;;20750;6837;117984;-89
2022/08/03 00:18:15;;;;;;;4.20;4.00;;;23.30;48.70;;;;;;20527;6838;307578;-88
2022/08/03 00:20:41;;;;;;;4.37;4.15;;;23.40;48.80;;;;;;20531;6838;337407;-88
2022/08/03 00:23:07;;;;;;;4.53;4.22;;;23.70;48.40;;;;;;20516;6838;278801;-88
2022/08/03 00:25:36;;;;;;;4.18;3.97;;;23.90;48.00;;;;;;20542;6838;277935;-88
2022/08/03 00:28:01;;;;;;;4.10;3.90;;;24.10;47.90;;;;;;20523;6838;336560;-88
2022/08/03 00:30:27;;;;;;;4.12;3.92;;;24.20;47.30;;;;;;20527;6838;342172;-89
2022/08/03 00:32:52;;;;;;;3.90;3.70;;;24.20;48.00;;;;;;20749;6838;117118;-88
2022/08/03 00:35:18;;;;;;;4.25;3.95;;;24.00;48.00;;;;;;20509;6838;289626;-88
2022/08/03 00:37:43;;;;;;;3.92;3.62;;;24.00;47.70;;;;;;20681;6860;117585;-89
2022/08/03 00:40:09;;;;;;;4.23;4.00;;;23.80;48.00;;;;;;20537;6838;278401;-88
2022/08/03 00:42:35;;;;;;;6.03;3.87;;;23.80;48.10;;;;;;20671;6860;118988;-88
2022/08/03 00:45:01;;;;;;;5.15;3.80;;;23.60;48.20;;;;;;20698;6838;117161;-88
2022/08/03 00:47:26;;;;;;;4.33;4.13;;;23.30;48.60;;;;;;20519;6838;278577;-88
2022/08/03 00:49:52;;;;;;;4.60;4.30;;;23.40;48.80;;;;;;20532;6838;342082;-89
2022/08/03 00:52:17;;;;;;;4.50;4.20;;;23.70;48.50;;;;;;20533;6838;308092;-89
2022/08/03 00:54:43;;;;;;;4.23;4.00;;;23.80;48.20;;;;;;20539;6838;282628;-89
2022/08/03 00:57:08;;;;;;;4.80;4.40;;;23.90;48.00;;;;;;20717;6838;117916;-88
2022/08/03 00:59:37;;;;;;;4.60;4.35;;;23.30;48.60;;;;;;20679;6857;121973;-88
2022/08/03 01:02:01;;;;;;;5.07;3.97;;;23.20;48.70;;;;;;20652;6860;118111;-89
2022/08/03 01:04:26;;;;;;;4.13;3.83;;;22.90;49.10;;;;;;20739;6838;116941;-89
2022/08/03 01:06:52;;;;;;;4.27;4.03;;;22.80;49.60;;;;;;20734;6838;122126;-89
2022/08/03 01:09:26;;;;;;;4.07;3.87;;;22.60;49.80;;;;;;20686;6836;120956;-88
2022/08/03 01:11:55;;;;;;;4.13;3.90;;;22.50;50.10;;;;;;20690;6837;119344;-88
2022/08/03 01:14:24;;;;;;;4.43;4.20;;;22.40;50.40;;;;;;20518;6837;278463;-90
2022/08/03 01:17:31;;;;;;;4.23;4.00;;;22.70;50.60;;;;;;20700;6837;118063;-88
2022/08/03 01:20:03;;;;;;;4.30;4.00;;;22.70;50.20;;;;;;20503;6837;277740;-88
2022/08/03 01:22:48;;;;;;;4.03;3.73;;;23.00;50.30;;;;;;20648;6860;117273;-88
2022/08/03 01:25:50;;;;;;;4.10;3.90;;;22.90;50.20;;;;;;20716;6837;119062;-88
2022/08/03 01:28:36;;;;;;;4.20;4.00;;;22.70;50.40;;;;;;20731;6837;117713;-89
2022/08/03 01:31:01;;;;;;;4.60;4.40;;;22.40;50.50;;;;;;20525;6838;310637;-87
2022/08/03 01:33:27;;;;;;;4.20;3.97;;;22.70;50.70;;;;;;20670;6837;118374;-88
2022/08/03 01:35:58;;;;;;;4.57;4.28;;;22.70;50.60;;;;;;20673;6856;121499;-89
2022/08/03 01:38:24;;;;;;;4.80;4.40;;;22.60;50.90;;;;;;20496;6837;330775;-89
2022/08/03 01:40:50;;;;;;;4.78;4.57;;;22.80;50.70;;;;;;20489;6837;336845;-87
2022/08/03 01:43:15;;;;;;;4.47;4.27;;;23.20;50.00;;;;;;20637;6856;118956;-90
2022/08/03 01:45:41;;;;;;;4.60;4.30;;;23.20;49.90;;;;;;20472;6842;278993;-88
2022/08/03 01:48:08;;;;;;;4.80;4.50;;;23.20;49.90;;;;;;20509;6842;311698;-87
2022/08/03 01:50:35;;;;;;;4.50;4.30;;;23.40;49.70;;;;;;20643;6863;117047;-89
2022/08/03 01:53:00;;;;;;;4.80;4.50;;;23.20;49.70;;;;;;20483;6846;307558;-88
2022/08/03 01:55:27;;;;;;;4.50;4.30;;;23.20;49.80;;;;;;20641;6861;119025;-89
2022/08/03 01:57:53;;;;;;;4.90;4.60;;;23.10;50.00;;;;;;20497;6846;292167;-88
2022/08/03 02:00:19;;;;;;;4.60;4.30;;;23.40;50.10;;;;;;20485;6846;308492;-88
2022/08/03 02:02:45;;;;;;;4.47;4.17;;;23.30;50.00;;;;;;20660;6861;117505;-88
2022/08/03 02:05:12;;;;;;;4.78;4.47;;;23.20;50.00;;;;;;20478;6846;335668;-88
2022/08/03 02:07:38;;;;;;;4.57;4.27;;;23.10;50.10;;;;;;20711;6846;117391;-88
2022/08/03 02:10:04;;;;;;;4.63;4.33;;;23.00;50.00;;;;;;20668;6861;117713;-88
2022/08/03 02:12:30;;;;;;;4.27;4.07;;;22.70;50.30;;;;;;20725;6846;118743;-90
2022/08/03 02:14:55;;;;;;;4.72;4.43;;;22.50;50.70;;;;;;20540;6846;307672;-87
2022/08/03 02:17:21;;;;;;;5.00;4.63;;;22.60;50.80;;;;;;20498;6846;316621;-87
2022/08/03 02:19:47;;;;;;;5.03;4.80;;;23.20;50.00;;;;;;20498;6846;280940;-87
2022/08/03 02:22:13;;;;;;;5.35;4.95;;;23.30;50.20;;;;;;20499;6844;335701;-87
2022/08/03 02:24:39;;;;;;;4.90;4.50;;;23.40;49.70;;;;;;20713;6845;121199;-88
2022/08/03 02:27:05;;;;;;;4.93;4.53;;;22.70;50.40;;;;;;20697;6845;118370;-87
2022/08/03 02:29:31;;;;;;;4.63;4.43;;;22.70;50.30;;;;;;20696;6846;121202;-89
2022/08/03 02:31:56;;;;;;;4.97;4.77;;;22.50;50.90;;;;;;20497;6846;308389;-89
2022/08/03 02:34:23;;;;;;;4.97;4.67;;;22.60;51.30;;;;;;20700;6846;121932;-88
2022/08/03 02:36:49;;;;;;;5.80;5.27;;;22.60;51.20;;;;;;20699;6846;121927;-89
2022/08/03 02:39:14;;;;;;;5.60;5.30;;;22.30;51.50;;;;;;20472;6846;313952;-87
2022/08/03 02:41:40;;;;;;;6.00;5.60;;;22.50;51.80;;;;;;20454;6846;282433;-89
2022/08/03 02:44:08;;;;;;;5.00;4.70;;;22.90;51.30;;;;;;20697;6846;117963;-88
2022/08/03 02:46:37;;;;;;;5.77;5.37;;;22.70;51.10;;;;;;20496;6846;313067;-88
2022/08/03 02:49:03;;;;;;;5.50;5.20;;;22.80;51.30;;;;;;20471;6846;309321;-88
2022/08/03 02:51:28;;;;;;;5.78;5.37;;;22.90;51.00;;;;;;20495;6846;338250;-87
2022/08/03 02:53:54;;;;;;;5.23;4.80;;;23.10;50.70;;;;;;20712;6846;118770;-88
2022/08/03 02:56:19;;;;;;;5.30;5.03;;;22.80;50.80;;;;;;20495;6846;308951;-90
2022/08/03 02:58:45;;;;;;;5.00;4.70;;;22.80;51.00;;;;;;20699;6846;120221;-88
2022/08/03 03:01:11;;;;;;;5.47;5.00;;;22.70;51.40;;;;;;20473;6846;279022;-87
2022/08/03 03:03:37;;;;;;;5.80;5.43;;;22.60;51.30;;;;;;20500;6846;320200;-88
2022/08/03 03:06:03;;;;;;;5.32;5.03;;;22.90;51.10;;;;;;20444;6846;331380;-89
2022/08/03 03:08:28;;;;;;;5.03;4.73;;;23.00;50.80;;;;;;20503;6846;303062;-90
2022/08/03 03:10:55;;;;;;;5.33;4.97;;;23.10;50.60;;;;;;20705;6846;117207;-87
2022/08/03 03:13:21;;;;;;;4.60;4.40;;;22.80;50.70;;;;;;20697;6846;121990;-87
2022/08/03 03:15:46;;;;;;;5.13;4.73;;;22.40;51.30;;;;;;20779;6846;116578;-87
2022/08/03 03:18:12;;;;;;;5.75;5.35;;;22.10;52.50;;;;;;20528;6846;283610;-87
2022/08/03 03:20:37;;;;;;;5.40;5.10;;;22.30;51.90;;;;;;20501;6846;308142;-88
2022/08/03 03:23:03;;;;;;;4.77;4.57;;;22.60;51.50;;;;;;20701;6846;118888;-87
2022/08/03 03:25:31;;;;;;;5.47;5.17;;;22.50;51.50;;;;;;20502;6846;304701;-89
2022/08/03 03:28:04;;;;;;;5.23;4.93;;;22.40;51.50;;;;;;20721;6846;117316;-89
2022/08/03 03:30:29;;;;;;;5.40;5.10;;;22.40;51.50;;;;;;20722;6846;118415;-91
2022/08/03 03:32:55;;;;;;;5.30;5.00;;;22.10;51.80;;;;;;20721;6844;118097;-89
2022/08/03 03:35:20;;;;;;;4.80;4.60;;;21.80;52.20;;;;;;20695;6845;117177;-88
2022/08/03 03:37:46;;;;;;;5.33;4.93;;;21.60;52.60;;;;;;20512;6845;279446;-89
2022/08/03 03:40:11;;;;;;;5.60;5.20;;;21.90;52.90;;;;;;20502;6846;309014;-88
2022/08/03 03:42:37;;;;;;;4.50;4.20;;;22.30;52.30;;;;;;20717;6846;117187;-89
2022/08/03 03:45:03;;;;;;;5.70;5.30;;;22.30;52.30;;;;;;20500;6846;307541;-89
2022/08/03 03:47:28;;;;;;;5.13;4.73;;;22.40;52.50;;;;;;20715;6846;117373;-89
2022/08/03 03:49:55;;;;;;;4.87;4.57;;;22.30;52.50;;;;;;20716;6846;117039;-89
2022/08/03 03:52:20;;;;;;;4.87;4.33;;;22.00;52.70;;;;;;20719;6846;117290;-89
2022/08/03 03:54:46;;;;;;;5.10;4.70;;;21.80;53.10;;;;;;20511;6846;337311;-89
2022/08/03 03:57:11;;;;;;;5.32;5.00;;;21.90;53.20;;;;;;20489;6846;304581;-89
2022/08/03 03:59:37;;;;;;;5.23;4.93;;;22.30;52.30;;;;;;20510;6846;282888;-88
2022/08/03 04:02:04;;;;;;;5.30;4.90;;;22.50;51.70;;;;;;20709;6846;117384;-88
2022/08/03 04:12:44;;;;;;;5.10;4.73;;;22.30;52.40;;;;;;20720;6846;117806;-90
2022/08/03 04:15:12;;;;;;;5.17;4.93;;;21.80;53.60;;;;;;20698;6846;117874;-90
2022/08/03 04:17:39;;;;;;;4.93;4.72;;;21.80;52.90;;;;;;20508;6846;308084;-90
2022/08/03 04:20:05;;;;;;;5.37;5.00;;;22.20;52.40;;;;;;20519;6846;278533;-90
2022/08/03 04:22:31;;;;;;;5.37;5.07;;;22.10;52.30;;;;;;20502;6846;337689;-89
2022/08/03 04:25:00;;;;;;;5.07;4.77;;;22.40;51.70;;;;;;20719;6846;117663;-90
2022/08/03 04:27:25;;;;;;;4.80;4.30;;;22.20;51.80;;;;;;20668;6846;119742;-89
2022/08/03 04:29:51;;;;;;;5.37;5.07;;;21.90;52.40;;;;;;20438;6861;342964;-89
2022/08/03 04:32:19;;;;;;;5.40;5.10;;;21.90;52.70;;;;;;20676;6849;117500;-89
2022/08/03 04:34:44;;;;;;;5.43;4.63;;;21.90;52.60;;;;;;20707;6849;117163;-90
2022/08/03 04:37:10;;;;;;;5.30;5.00;;;21.70;52.90;;;;;;20461;6849;306477;-90
2022/08/03 04:39:36;;;;;;;4.50;4.20;;;21.90;53.30;;;;;;20703;6849;121115;-90
2022/08/03 04:42:02;;;;;;;5.45;5.05;;;21.80;53.10;;;;;;20495;6849;308167;-90
2022/08/03 04:44:27;;;;;;;5.60;5.20;;;22.00;53.20;;;;;;20486;6847;308717;-89
2022/08/03 04:46:53;;;;;;;5.57;5.28;;;22.30;52.50;;;;;;20498;6849;342030;-89
2022/08/03 04:49:18;;;;;;;4.57;4.37;;;22.50;52.10;;;;;;20687;6849;117450;-90
2022/08/03 04:51:44;;;;;;;5.20;5.00;;;22.40;52.20;;;;;;20495;6849;313452;-89
2022/08/03 04:54:13;;;;;;;4.83;4.53;;;22.40;52.10;;;;;;20703;6849;117234;-90
2022/08/03 04:56:38;;;;;;;5.17;4.77;;;22.30;52.30;;;;;;20710;6849;117059;-89
2022/08/03 04:59:04;;;;;;;5.40;5.03;;;22.10;52.70;;;;;;20684;6849;147351;-90
2022/08/03 05:01:29;;;;;;;5.77;5.47;;;21.90;52.90;;;;;;20506;6849;308496;-90
2022/08/03 05:03:55;;;;;;;5.05;4.85;;;22.10;53.20;;;;;;20718;6849;117471;-89
2022/08/03 05:06:20;;;;;;;5.70;5.30;;;22.10;53.00;;;;;;20496;6849;308493;-90
2022/08/03 05:08:46;;;;;;;5.50;5.10;;;22.30;52.80;;;;;;20707;6849;117881;-88
2022/08/03 05:11:12;;;;;;;5.30;4.90;;;22.00;52.90;;;;;;20694;6849;117930;-88
2022/08/03 05:13:38;;;;;;;5.68;5.18;;;22.00;52.90;;;;;;20499;6849;286690;-88
2022/08/03 05:16:03;;;;;;;5.27;5.00;;;22.20;53.10;;;;;;20486;6849;308083;-86
2022/08/03 05:18:29;;;;;;;5.87;5.47;;;22.50;52.60;;;;;;20500;6849;278994;-87
2022/08/03 05:20:55;;;;;;;5.87;5.57;;;22.90;52.40;;;;;;20498;6849;289867;-88
2022/08/03 05:23:21;;;;;;;5.73;5.43;;;22.80;51.70;;;;;;20475;6849;309013;-88
2022/08/03 05:25:46;;;;;;;5.70;5.40;;;23.00;51.30;;;;;;20500;6849;279393;-88
2022/08/03 05:28:12;;;;;;;5.47;5.07;;;23.10;51.20;;;;;;20709;6849;117690;-88
2022/08/03 05:30:38;;;;;;;5.60;5.10;;;22.80;51.40;;;;;;20705;6849;117216;-88
2022/08/03 05:33:03;;;;;;;4.97;4.78;;;22.50;52.00;;;;;;20668;6849;117306;-87
2022/08/03 05:35:29;;;;;;;4.83;4.53;;;22.20;52.60;;;;;;20704;6849;117462;-86
2022/08/03 05:37:54;;;;;;;5.00;4.70;;;22.00;53.00;;;;;;20705;6849;117220;-87
2022/08/03 05:40:20;;;;;;;4.93;4.70;;;21.90;53.40;;;;;;20705;6849;117860;-86
2022/08/03 05:42:45;;;;;;;5.20;4.87;;;21.90;53.60;;;;;;20712;6849;120997;-91
2022/08/03 05:45:17;;;;;;;5.47;5.13;;;21.80;54.00;;;;;;20695;6849;117838;-87
2022/08/03 05:47:43;;;;;;;5.83;5.07;;;21.70;53.90;;;;;;20706;6849;117825;-86
2022/08/03 05:50:08;;;;;;;5.03;4.83;;;21.70;54.10;;;;;;20708;6849;117357;-86
2022/08/03 05:52:33;;;;;;;6.60;6.03;;;21.70;54.30;;;;;;20497;6849;283214;-88
2022/08/03 05:54:59;;;;;;;5.83;5.40;;;22.00;54.40;;;;;;20508;6849;278633;-89
2022/08/03 05:57:24;;;;;;;5.30;4.83;;;22.50;53.90;;;;;;20685;6848;117648;-86
2022/08/03 05:59:50;;;;;;;5.40;5.10;;;22.50;53.50;;;;;;20505;6849;308554;-87
2022/08/03 06:02:16;;;;;;;5.57;5.00;;;22.80;53.50;;;;;;20722;6849;117079;-86
2022/08/03 06:04:42;;;;;;;5.57;5.28;;;22.70;54.00;;;;;;20519;6849;306245;-89
2022/08/03 06:07:07;;;;;;;5.70;5.27;;;22.90;53.00;;;;;;20707;6849;121446;-87
2022/08/03 06:09:33;;;;;;;5.73;5.23;;;22.90;52.90;;;;;;20756;6849;117211;-87
2022/08/03 06:12:01;;;;;;;5.72;5.32;;;22.80;53.10;;;;;;20547;6849;282881;-87
2022/08/03 06:14:27;;;;;;;5.73;5.33;;;23.00;52.70;;;;;;20730;6849;117205;-88
2022/08/03 06:16:52;;;;;;;6.03;5.70;;;23.10;52.50;;;;;;20523;6849;337600;-86
2022/08/03 06:19:18;;;;;;;5.47;5.28;;;23.30;52.30;;;;;;20495;6849;307587;-85
2022/08/03 06:21:44;;;;;;;6.07;5.75;;;23.70;51.80;;;;;;20730;6849;117341;-85
2022/08/03 06:24:10;;;;;;;5.65;5.35;;;23.60;51.70;;;;;;20497;6849;281443;-86
2022/08/03 06:26:35;;;;;;;5.70;5.40;;;23.80;51.10;;;;;;20734;6849;117678;-85
2022/08/03 06:29:01;;;;;;;5.65;5.35;;;23.80;51.20;;;;;;20528;6849;278101;-86
2022/08/03 06:31:28;;;;;;;6.20;5.80;;;24.00;50.70;;;;;;20493;6849;337249;-85
2022/08/03 06:33:54;;;;;;;5.50;5.20;;;24.30;50.20;;;;;;20514;6849;281363;-85
2022/08/03 06:36:19;;;;;;;5.70;5.40;;;24.60;49.40;;;;;;20499;6849;341094;-87
2022/08/03 06:38:46;;;;;;;5.93;5.40;;;25.00;49.80;;;;;;20710;6849;117241;-84
2022/08/03 06:41:11;;;;;;;5.50;5.10;;;24.90;49.60;;;;;;20489;6849;300979;-86
2022/08/03 06:43:37;;;;;;;5.70;5.30;;;25.30;48.50;;;;;;20541;6849;278003;-84
2022/08/03 06:46:03;;;;;;;5.23;4.83;;;26.00;47.40;;;;;;20738;6849;117201;-85
2022/08/03 06:48:29;;;;;;;5.30;5.00;;;26.50;47.90;;;;;;20513;6849;307284;-85
2022/08/03 06:50:55;;;;;;;4.83;4.60;;;27.10;45.30;;;;;;20720;6849;121335;-86
2022/08/03 06:53:21;;;;;;;5.30;4.97;;;27.60;45.90;;;;;;20486;6849;309037;-85
2022/08/03 06:55:46;;;;;;;4.63;4.43;;;28.10;44.10;;;;;;20501;6849;315657;-89
2022/08/03 06:58:12;;;;;;;5.00;4.43;;;28.80;42.30;;;;;;20709;6849;117243;-89
2022/08/03 07:00:37;;;;;;;5.00;4.60;;;29.00;42.50;;;;;;20484;6849;278507;-87
2022/08/03 07:03:03;;;;;;;4.45;4.22;;;29.20;41.00;;;;;;20498;6849;308959;-87
2022/08/03 07:05:32;;;;;;;4.90;4.60;;;29.90;39.90;;;;;;20486;6849;308072;-87
2022/08/03 07:07:55;;;;;;;4.40;4.10;;;29.90;40.40;;;;;;20702;6847;117541;-86
2022/08/03 07:10:20;;;;;;;4.83;4.47;;;29.80;40.20;;;;;;20706;6849;117180;-87
2022/08/03 07:12:46;;;;;;;4.67;4.33;;;29.60;40.80;;;;;;20498;6849;278547;-86
2022/08/03 07:15:13;;;;;;;4.37;4.15;;;29.70;39.90;;;;;;20489;6849;308627;-87
2022/08/03 07:17:38;;;;;;;5.30;4.37;;;30.00;39.70;;;;;;20714;6849;116960;-84
2022/08/03 07:20:05;;;;;;;4.40;4.10;;;30.20;39.50;;;;;;20502;6849;300496;-87
2022/08/03 07:22:30;;;;;;;4.20;4.00;;;30.10;39.40;;;;;;20705;6849;118134;-89
2022/08/03 07:24:56;;;;;;;3.80;3.70;;;30.10;39.90;;;;;;20719;6849;117854;-88
2022/08/03 07:27:22;;;;;;;4.10;3.87;;;30.00;39.80;;;;;;20470;6849;308975;-88
2022/08/03 07:29:48;;;;;;;3.70;3.50;;;29.90;40.10;;;;;;20668;6864;117336;-88
2022/08/03 07:32:14;;;;;;;4.20;3.90;;;29.90;40.10;;;;;;20495;6849;283152;-88
2022/08/03 07:34:42;;;;;;;3.83;3.50;;;30.10;39.80;;;;;;20712;6849;117183;-91
2022/08/03 07:37:09;;;;;;;3.67;3.47;;;30.10;39.80;;;;;;20484;6849;308596;-91
2022/08/03 07:39:34;;;;;;;4.13;3.80;;;30.30;40.00;;;;;;20502;6849;312588;-92
2022/08/03 07:42:00;;;;;;;3.23;3.13;;;30.70;39.60;;;;;;20717;6849;121638;-92
2022/08/03 07:44:26;;;;;;;3.20;3.00;;;30.70;39.10;;;;;;20491;6849;308773;-91
2022/08/03 07:46:53;;;;;;;3.43;3.30;;;30.80;39.10;;;;;;20500;6849;278250;-91
2022/08/03 07:49:18;;;;;;;3.37;3.17;;;31.00;38.10;;;;;;20479;6849;277824;-92
2022/08/03 07:51:44;;;;;;;3.57;3.20;;;31.30;37.10;;;;;;20488;6849;278256;-91
2022/08/03 07:54:11;;;;;;;3.67;3.20;;;31.50;37.40;;;;;;20718;6849;117256;-91
2022/08/03 07:56:36;;;;;;;3.70;3.50;;;31.50;38.50;;;;;;20699;6849;117647;-92
2022/08/03 07:59:03;;;;;;;3.90;3.60;;;31.30;39.50;;;;;;20747;6849;118360;-93
2022/08/03 08:01:32;;;;;;;3.40;3.20;;;31.10;40.60;;;;;;20535;6849;308131;-93
2022/08/03 08:03:56;;;;;;;3.60;3.20;;;31.80;39.20;;;;;;20520;6849;311197;-92
2022/08/03 08:06:22;;;;;;;3.27;3.07;;;31.70;39.10;;;;;;20723;6849;116796;-92
2022/08/03 08:08:52;;;;;;;2.90;2.70;;;31.70;38.90;;;;;;20741;6849;117237;-93
2022/08/03 08:11:17;;;;;;;3.40;3.10;;;31.70;38.90;;;;;;20467;6849;308072;-93
2022/08/03 08:13:42;;;;;;;3.50;3.13;;;31.90;38.20;;;;;;20507;6849;312008;-93
2022/08/03 08:16:08;;;;;;;3.27;3.17;;;32.40;37.90;;;;;;20708;6849;116383;-93
2022/08/03 08:18:33;;;;;;;3.47;3.23;;;32.50;38.00;;;;;;20511;6847;283225;-93
2022/08/03 08:21:00;;;;;;;3.20;2.90;;;32.70;37.50;;;;;;20507;6848;310745;-93
2022/08/03 08:23:25;;;;;;;4.33;3.20;;;33.00;36.90;;;;;;20682;6849;121698;-92
2022/08/03 08:25:50;;;;;;;3.10;3.00;;;33.00;37.20;;;;;;20721;6849;117371;-93
2022/08/03 08:28:16;;;;;;;4.37;2.97;;;32.90;36.80;;;;;;20502;6849;308354;-93
2022/08/03 08:30:41;;;;;;;2.30;2.20;;;33.00;35.60;;;;;;20484;6849;277863;-93
2022/08/03 08:33:08;;;;;;;2.60;2.40;;;33.60;34.70;;;;;;20492;6849;279698;-93
2022/08/03 08:35:33;;;;;;;3.43;2.63;;;33.60;34.70;;;;;;20719;6849;117641;-93
2022/08/03 08:37:59;;;;;;;2.80;2.30;;;33.50;36.80;;;;;;20732;6849;114803;-93
2022/08/03 08:40:26;;;;;;;2.87;2.67;;;33.70;34.70;;;;;;20520;6849;279071;-94
2022/08/03 08:42:51;;;;;;;2.90;2.70;;;33.70;34.70;;;;;;20529;6849;312177;-93
2022/08/03 08:45:18;;;;;;;2.90;2.70;;;34.10;34.60;;;;;;20499;6849;278815;-93
2022/08/03 08:47:42;;;;;;;2.60;2.50;;;34.40;34.10;;;;;;20510;6849;308477;-93
2022/08/03 08:50:08;;;;;;;5.00;2.37;;;34.70;34.40;;;;;;20716;6849;117438;-93
2022/08/03 08:52:34;;;;;;;3.33;2.47;;;34.40;34.90;;;;;;20723;6849;117206;-92
2022/08/03 08:55:04;;;;;;;2.30;2.20;;;34.40;34.90;;;;;;20758;6849;121070;-93
2022/08/03 08:57:30;;;;;;;2.57;2.47;;;34.30;34.60;;;;;;20758;6849;116721;-93
2022/08/03 08:59:58;;;;;;;3.47;2.20;;;34.20;34.40;;;;;;20726;6849;117306;-92
2022/08/03 09:02:24;;;;;;;2.30;2.20;;;34.10;34.90;;;;;;20498;6849;308961;-92
2022/08/03 09:04:50;;;;;;;2.50;2.40;;;34.40;34.30;;;;;;20718;6849;117135;-93
2022/08/03 09:07:16;;;;;;;2.30;2.20;;;34.40;34.30;;;;;;20489;6849;307124;-93
2022/08/03 09:09:42;;;;;;;2.60;2.40;;;34.70;33.60;;;;;;20716;6849;117335;-93
2022/08/03 09:12:06;;;;;;;3.50;2.10;;;34.70;34.20;;;;;;20717;6849;117731;-91
2022/08/03 09:14:33;;;;;;;3.30;2.40;;;34.60;34.30;;;;;;20512;6849;282944;-92
2022/08/03 09:17:02;;;;;;;2.53;2.33;;;34.90;32.90;;;;;;20710;6849;118407;-92
2022/08/03 09:19:28;;;;;;;2.30;2.20;;;35.00;33.20;;;;;;20489;6849;278553;-91
2022/08/03 09:22:11;;;;;;;2.63;2.53;;;35.20;33.00;;;;;;20718;6849;118027;-91
2022/08/03 09:24:36;;;;;;;2.30;2.20;;;35.30;33.00;;;;;;20713;6849;117687;-91
2022/08/03 09:27:02;;;;;;;2.40;2.20;;;35.20;33.10;;;;;;20731;6849;117848;-91
2022/08/03 09:29:27;;;;;;;1.73;1.70;;;35.10;33.00;;;;;;20477;6849;279358;-92
2022/08/03 09:31:53;;;;;;;4.90;1.90;;;35.40;30.90;;;;;;20527;6833;335923;-91
2022/08/03 09:34:19;;;;;;;2.13;2.00;;;35.70;30.90;;;;;;20503;6848;336740;-91
2022/08/03 09:36:45;;;;;;;1.95;1.85;;;36.00;30.80;;;;;;20751;6838;117379;-91
2022/08/03 09:39:13;;;;;;;1.77;1.70;;;35.90;31.10;;;;;;20488;6848;314759;-91
2022/08/03 09:41:39;;;;;;;1.67;1.57;;;35.90;30.40;;;;;;20486;6848;306679;-91
2022/08/03 09:44:05;;;;;;;1.80;1.70;;;36.20;29.90;;;;;;20502;6850;278338;-91
2022/08/03 09:46:32;;;;;;;1.90;1.80;;;36.50;29.30;;;;;;20519;6837;312323;-92
2022/08/03 09:49:10;;;;;;;1.80;1.70;;;36.50;29.30;;;;;;20539;6835;305575;-91
2022/08/03 09:51:36;;;;;;;2.50;1.70;;;36.60;29.30;;;;;;20530;6837;308430;-91
2022/08/03 09:54:03;;;;;;;1.97;1.87;;;36.60;29.30;;;;;;20764;6827;117301;-91
2022/08/03 09:56:38;;;;;;;1.43;1.43;;;36.50;29.40;;;;;;20773;6827;117647;-93
2022/08/03 09:59:03;;;;;;;1.60;1.60;;;36.20;29.80;;;;;;20715;6852;118132;-92
2022/08/03 10:01:33;;;;;;;2.20;1.90;;;35.90;30.00;;;;;;20619;6842;117167;-92
2022/08/03 10:03:58;;;;;;;1.50;1.50;;;35.80;30.10;;;;;;20543;6835;277029;-92
2022/08/03 10:06:24;;;;;;;1.70;1.60;;;35.80;30.20;;;;;;20575;6835;306300;-92
2022/08/03 10:09:10;;;;;;;1.80;1.70;;;36.10;29.60;;;;;;20866;6822;116230;-93
2022/08/03 10:11:35;;;;;;;1.57;1.47;;;36.20;29.60;;;;;;20858;6822;117014;-93
2022/08/03 10:14:04;;;;;;;1.60;1.50;;;35.90;29.20;;;;;;20884;6822;66390;-92
2022/08/03 10:16:34;;;;;;;2.33;1.75;;;35.70;29.40;;;;;;21174;6618;110891;-92
2022/08/03 10:19:21;;;;;;;;;;;;;;;;;;;;;
2022/08/03 10:21:50;;;;;;;1.77;1.67;;;35.50;29.90;;;;;;20932;6740;116406;-91
2022/08/03 10:24:38;;;;;;;;;;;;;;;;;;;;;
2022/08/03 10:27:07;;;;;;;1.70;1.60;;;35.60;29.80;;;;;;20721;6739;110997;-92
2022/08/03 10:29:42;;;;;;;1.85;1.62;;;35.60;29.50;;;;;;20559;6754;335681;-92
2022/08/03 10:32:25;;;;;;;3.10;1.70;;;35.80;28.60;;;;;;20403;6761;333708;-90
2022/08/03 10:35:07;;;;;;;1.70;1.60;;;36.10;28.40;;;;;;20664;6748;307547;-90
2022/08/03 10:37:55;;;;;;;1.87;1.62;;;36.40;28.40;;;;;;20670;6735;324824;-89
2022/08/03 10:40:34;;;;;;;1.47;1.40;;;36.50;27.60;;;;;;20917;6716;117130;-91
2022/08/03 10:43:07;;;;;;;1.80;1.70;;;36.30;27.60;;;;;;20764;6716;304976;-89
2022/08/03 10:45:42;;;;;;;1.60;1.50;;;36.20;27.20;;;;;;20487;6770;340329;-90
2022/08/03 10:48:18;;;;;;;1.70;1.60;;;36.50;27.60;;;;;;20714;6735;340475;-89
2022/08/03 10:50:54;;;;;;;1.73;1.63;;;36.50;26.90;;;;;;20878;6748;117515;-87
2022/08/03 10:53:37;;;;;;;2.00;1.90;;;36.40;26.80;;;;;;20896;6727;118982;-90
2022/08/03 10:59:53;;;;;;;2.10;1.70;;;36.50;27.40;;;;;;20863;6648;275211;-91
2022/08/03 11:02:29;;;;;;;1.93;1.73;;;36.70;26.90;;;;;;20648;6742;276852;-92
2022/08/03 11:05:15;;;;;;;1.87;1.83;;;36.80;27.50;;;;;;20840;6755;117038;-89
2022/08/03 11:07:51;;;;;;;2.30;1.60;;;36.60;27.50;;;;;;20917;6800;118352;-92
2022/08/03 11:10:30;;;;;;;1.90;1.80;;;36.30;27.70;;;;;;20586;6802;276420;-90
2022/08/03 11:13:06;;;;;;;1.67;1.57;;;36.50;27.90;;;;;;20589;6752;307610;-89
2022/08/03 11:15:43;;;;;;;1.67;1.58;;;36.40;27.80;;;;;;20697;6713;307213;-88
2022/08/03 11:18:19;;;;;;;1.80;1.70;;;36.60;27.70;;;;;;20765;6713;277058;-90
2022/08/03 11:20:54;;;;;;;1.70;1.67;;;36.70;27.50;;;;;;20987;6713;66488;-90
2022/08/03 11:23:47;;;;;;;1.80;1.70;;;36.60;27.40;;;;;;20703;6728;333773;-88
2022/08/03 11:26:22;;;;;;;1.80;1.70;;;36.50;27.50;;;;;;20697;6768;117598;-89
2022/08/03 11:28:57;;;;;;;1.77;1.67;;;36.40;27.90;;;;;;20825;6763;117071;-89
2022/08/03 11:31:36;;;;;;;1.60;1.50;;;36.10;28.00;;;;;;20797;6808;120741;-91
2022/08/03 11:34:11;;;;;;;2.23;1.67;;;35.90;28.20;;;;;;20763;6819;117572;-91
2022/08/03 11:37:17;;;;;;;1.97;1.87;;;35.70;28.70;;;;;;20729;6748;117748;-94
2022/08/03 11:39:53;;;;;;;1.87;1.70;;;35.60;28.50;;;;;;20837;6737;67473;-93
2022/08/03 11:42:38;;;;;;;;;;;;;;;;;;;;;
2022/08/03 11:45:04;;;;;;;2.00;1.90;;;35.60;28.90;;;;;;20703;6733;278740;-93
2022/08/03 11:47:39;;;;;;;3.30;1.87;;;35.80;27.90;;;;;;20434;6754;306133;-92
2022/08/03 11:50:16;;;;;;;2.07;1.60;;;36.30;29.10;;;;;;20858;6749;116853;-92
2022/08/03 11:52:50;;;;;;;2.13;2.03;;;36.40;28.50;;;;;;20856;6749;117006;-92
2022/08/03 11:55:26;;;;;;;2.10;1.80;;;36.20;27.90;;;;;;20844;6727;117881;-91
2022/08/03 11:58:03;;;;;;;1.70;1.67;;;36.00;28.40;;;;;;20890;6726;117246;-89
2022/08/03 12:00:38;;;;;;;2.20;2.10;;;35.90;28.40;;;;;;20720;6731;306005;-90
2022/08/03 12:03:14;;;;;;;2.10;2.00;;;36.00;28.30;;;;;;20897;6727;116915;-89
2022/08/03 12:05:50;;;;;;;1.90;1.80;;;36.10;27.80;;;;;;20665;6727;307253;-90
2022/08/03 12:08:32;;;;;;;1.60;1.50;;;36.00;27.80;;;;;;20877;6742;121020;-92
2022/08/03 12:11:04;;;;;;;1.75;1.75;;;36.20;28.30;;;;;;20605;6757;344010;-92
2022/08/03 12:13:38;;;;;;;1.77;1.70;;;36.20;28.20;;;;;;20743;6737;117724;-90
2022/08/03 12:16:19;;;;;;;2.00;1.90;;;36.20;27.90;;;;;;20764;6737;118324;-90
2022/08/03 12:18:53;;;;;;;1.60;1.57;;;35.90;28.40;;;;;;20892;6737;116851;-89
2022/08/03 12:21:28;;;;;;;2.42;1.85;;;35.90;28.40;;;;;;20613;6751;295810;-89
2022/08/03 12:24:05;;;;;;;5.62;5.40;;;36.30;27.70;;;;;;20610;6761;277185;-89
2022/08/03 12:26:47;;;;;;;2.10;1.90;;;36.30;27.70;;;;;;20762;6739;117650;-90
2022/08/03 12:29:24;;;;;;;1.87;1.77;;;36.30;28.10;;;;;;20818;6754;117374;-90
2022/08/03 12:31:58;;;;;;;2.00;1.90;;;36.10;28.40;;;;;;20667;6741;310786;-89
2022/08/03 12:34:43;;;;;;;3.10;1.90;;;36.20;27.60;;;;;;20816;6759;117098;-89
2022/08/03 12:37:19;;;;;;;3.83;1.80;;;36.20;27.80;;;;;;20609;6756;117972;-90
2022/08/03 12:39:55;;;;;;;2.20;2.10;;;35.80;28.20;;;;;;20845;6754;121537;-90
2022/08/03 12:42:30;;;;;;;1.80;1.70;;;35.80;28.20;;;;;;20861;6751;121623;-90
2022/08/03 12:45:23;;;;;;;2.00;1.90;;;35.70;29.40;;;;;;20622;6751;275849;-89
2022/08/03 12:48:09;;;;;;;1.50;1.50;;;35.80;28.30;;;;;;20787;6777;120131;-90
2022/08/03 12:50:36;;;;;;;3.23;2.10;;;35.70;28.30;;;;;;20802;6766;117169;-90
2022/08/03 12:53:21;;;;;;;2.00;1.90;;;35.70;28.30;;;;;;20713;6722;306800;-90
2022/08/03 12:55:47;;;;;;;2.10;2.00;;;35.70;28.30;;;;;;20660;6722;309006;-90
2022/08/03 12:58:32;;;;;;;2.13;1.90;;;35.90;28.10;;;;;;20925;6722;117191;-89
2022/08/03 13:01:05;;;;;;;2.60;2.43;;;35.80;27.80;;;;;;20927;6722;116892;-90